»·PEaware :: WAT633 KPHX-KPRC

WAT633 :: KPHX-KPRC

FLIGHT INFORMATION

Flight Status: Arrived
Operator:
Walker Air Transport
More flights by this operator :: More flights under this callsign
Pilot: Michael F. (9548)
Aircraft: BEECH AIRCRAFT SUPER KING AIR 350
(B350)
More flights by this aircraft type
Origin: KPHX Phoenix Sky Harbor Intl
United States
Destination: KPRC Love
United States
More flights between these airports :: More routes between these airports
Route: PXR V105 DRK
File this flight plan on PilotEdge
Remarks:
Altitude:
(Current/Filed)
14,000ft
Speed:
(Current/Filed)
250kts
Departed: 23-Dec-21 11:38 AM
Arrived: 23-Dec-21 12:06 PM
Distance/Time
Traveled:
76nm/0:27
Distance/Time
To Go:
Arrived

Flight Plot

Page will automatically refresh every two minutes.


Map Options




Map Legend


Flown Route
Filed Route
Departure Airport
Arrival Airport
Navaid (VOR, NDB)
Fix

Horizontal Profiles

Position Reports

Time Latitude Longitude Heading Altitude Ground
Speed
23-Dec-21 11:18 33.426351 -112.018193 0 1136ft 0kts
23-Dec-21 11:19 33.426351 -112.018193 90 1136ft 0kts
23-Dec-21 11:20 33.426351 -112.018193 90 1136ft 0kts
23-Dec-21 11:21 33.426351 -112.018193 90 1136ft 0kts
23-Dec-21 11:22 33.426351 -112.018193 90 1136ft 0kts
23-Dec-21 11:23 33.426351 -112.018193 90 1136ft 0kts
23-Dec-21 11:24 33.426351 -112.018193 90 1136ft 0kts
23-Dec-21 11:25 33.426351 -112.018193 90 1136ft 0kts
23-Dec-21 11:26 33.426351 -112.018193 90 1136ft 0kts
23-Dec-21 11:27 33.426351 -112.018193 90 1136ft 0kts
23-Dec-21 11:28 33.426351 -112.018193 90 1136ft 0kts
23-Dec-21 11:29 33.426351 -112.018193 90 1136ft 0kts
23-Dec-21 11:30 33.426351 -112.018193 90 1136ft 0kts
23-Dec-21 11:31 33.426351 -112.018193 90 1136ft 0kts
23-Dec-21 11:32 33.426351 -112.018193 90 1136ft 0kts
23-Dec-21 11:33 33.426351 -112.018192 90 1136ft 0kts
23-Dec-21 11:34 33.427753 -112.020928 270 1136ft 23kts
23-Dec-21 11:35 33.427828 -112.026718 317 1136ft 0kts
23-Dec-21 11:36 33.428530 -112.026937 21 1136ft 14kts
23-Dec-21 11:37 33.428737 -111.996104 87 1662ft 153kts
23-Dec-21 11:38 33.450943 -111.945544 60 3213ft 198kts
23-Dec-21 11:39 33.478852 -111.885157 59 4730ft 211kts
23-Dec-21 11:40 33.515376 -111.837391 343 6071ft 210kts
23-Dec-21 11:41 33.549589 -111.896875 298 7079ft 214kts
23-Dec-21 11:42 33.585692 -111.947058 313 9000ft 189kts
23-Dec-21 11:43 33.622504 -111.988919 306 10841ft 178kts
23-Dec-21 11:44 33.656551 -112.026716 303 12812ft 156kts
23-Dec-21 11:45 33.688034 -112.063417 305 14068ft 184kts
23-Dec-21 11:46 33.731947 -112.113745 308 14045ft 243kts
23-Dec-21 11:47 33.783758 -112.173092 309 14032ft 265kts
23-Dec-21 11:48 33.847196 -112.223174 325 14026ft 282kts
23-Dec-21 11:49 33.917582 -112.266519 325 14027ft 285kts
23-Dec-21 11:50 33.988705 -112.310338 325 14027ft 286kts
23-Dec-21 11:51 34.059636 -112.354119 325 14022ft 284kts
23-Dec-21 11:52 34.128787 -112.396870 325 14029ft 271kts
23-Dec-21 11:53 34.197129 -112.439238 325 14060ft 265kts
23-Dec-21 11:54 34.264742 -112.481211 325 14085ft 260kts
23-Dec-21 11:55 34.339428 -112.495614 355 14024ft 275kts
23-Dec-21 11:56 34.415179 -112.486326 30 14005ft 276kts
23-Dec-21 11:57 34.481582 -112.434361 29 12715ft 293kts
23-Dec-21 11:58 34.551838 -112.381048 29 10822ft 297kts
23-Dec-21 11:59 34.611381 -112.316258 42 9859ft 266kts
23-Dec-21 12:00 34.666421 -112.263027 29 8812ft 241kts
23-Dec-21 12:01 34.717169 -112.282948 278 7658ft 196kts
23-Dec-21 12:02 34.709570 -112.337837 246 6336ft 150kts
23-Dec-21 12:03 34.693201 -112.376853 227 5791ft 116kts
23-Dec-21 12:04 34.669666 -112.403501 218 5286ft 115kts
23-Dec-21 12:05 34.654072 -112.418976 129 5046ft 12kts
23-Dec-21 12:06 34.653701 -112.418721 185 5046ft 3kts
23-Dec-21 12:07 34.649138 -112.423390 220 5046ft 21kts

Navigation Log

Ident Type
Flight plan parsing failed, navigation log unavailable